sensor_id;sensor_type;location;lat;lon;timestamp;P1;durP1;ratioP1;P2;durP2;ratioP2
58240;SDS011;45058;55.772;38.224;2023-07-24T00:01:39;24.85;;;15.90;;
58240;SDS011;45058;55.772;38.224;2023-07-24T00:04:05;26.50;;;17.98;;
58240;SDS011;45058;55.772;38.224;2023-07-24T00:06:31;31.83;;;18.05;;
58240;SDS011;45058;55.772;38.224;2023-07-24T00:08:57;29.17;;;16.85;;
58240;SDS011;45058;55.772;38.224;2023-07-24T00:11:22;24.45;;;16.25;;
58240;SDS011;45058;55.772;38.224;2023-07-24T00:13:48;27.20;;;17.35;;
58240;SDS011;45058;55.772;38.224;2023-07-24T00:16:14;33.42;;;19.35;;
58240;SDS011;45058;55.772;38.224;2023-07-24T00:18:40;31.17;;;20.58;;
58240;SDS011;45058;55.772;38.224;2023-07-24T00:21:07;31.10;;;19.70;;
58240;SDS011;45058;55.772;38.224;2023-07-24T00:23:33;34.42;;;19.15;;
58240;SDS011;45058;55.772;38.224;2023-07-24T00:25:59;45.38;;;22.05;;
58240;SDS011;45058;55.772;38.224;2023-07-24T00:28:25;38.08;;;23.42;;
58240;SDS011;45058;55.772;38.224;2023-07-24T00:30:52;41.33;;;22.65;;
58240;SDS011;45058;55.772;38.224;2023-07-24T00:33:17;44.17;;;21.95;;
58240;SDS011;45058;55.772;38.224;2023-07-24T00:35:43;44.97;;;22.02;;
58240;SDS011;45058;55.772;38.224;2023-07-24T00:38:09;38.10;;;21.83;;
58240;SDS011;45058;55.772;38.224;2023-07-24T00:40:35;45.83;;;23.58;;
58240;SDS011;45058;55.772;38.224;2023-07-24T00:43:01;41.08;;;22.42;;
58240;SDS011;45058;55.772;38.224;2023-07-24T00:45:27;45.00;;;23.35;;
58240;SDS011;45058;55.772;38.224;2023-07-24T00:47:53;43.33;;;22.08;;
58240;SDS011;45058;55.772;38.224;2023-07-24T00:50:19;37.63;;;21.83;;
58240;SDS011;45058;55.772;38.224;2023-07-24T00:52:45;36.88;;;20.85;;
58240;SDS011;45058;55.772;38.224;2023-07-24T00:55:12;42.05;;;21.90;;
58240;SDS011;45058;55.772;38.224;2023-07-24T00:57:42;39.10;;;21.27;;
58240;SDS011;45058;55.772;38.224;2023-07-24T01:00:08;38.58;;;20.45;;
58240;SDS011;45058;55.772;38.224;2023-07-24T01:02:34;38.40;;;21.75;;
58240;SDS011;45058;55.772;38.224;2023-07-24T01:05:00;40.80;;;20.75;;
58240;SDS011;45058;55.772;38.224;2023-07-24T01:07:28;41.38;;;23.38;;
58240;SDS011;45058;55.772;38.224;2023-07-24T01:09:55;44.15;;;22.88;;
58240;SDS011;45058;55.772;38.224;2023-07-24T01:12:42;41.58;;;22.77;;
58240;SDS011;45058;55.772;38.224;2023-07-24T01:15:14;39.08;;;20.67;;
58240;SDS011;45058;55.772;38.224;2023-07-24T01:17:48;36.13;;;20.58;;
58240;SDS011;45058;55.772;38.224;2023-07-24T01:20:21;38.72;;;22.20;;
58240;SDS011;45058;55.772;38.224;2023-07-24T01:25:58;53.17;;;24.90;;
58240;SDS011;45058;55.772;38.224;2023-07-24T01:28:25;32.47;;;17.85;;
58240;SDS011;45058;55.772;38.224;2023-07-24T01:30:52;38.72;;;20.20;;
58240;SDS011;45058;55.772;38.224;2023-07-24T01:33:18;38.28;;;20.27;;
58240;SDS011;45058;55.772;38.224;2023-07-24T01:35:46;27.88;;;17.10;;
58240;SDS011;45058;55.772;38.224;2023-07-24T01:38:16;31.45;;;18.27;;
58240;SDS011;45058;55.772;38.224;2023-07-24T01:40:43;31.95;;;17.75;;
58240;SDS011;45058;55.772;38.224;2023-07-24T01:43:10;30.30;;;16.58;;
58240;SDS011;45058;55.772;38.224;2023-07-24T01:45:36;31.75;;;17.95;;
58240;SDS011;45058;55.772;38.224;2023-07-24T01:48:03;25.90;;;15.27;;
58240;SDS011;45058;55.772;38.224;2023-07-24T01:50:29;33.25;;;16.17;;
58240;SDS011;45058;55.772;38.224;2023-07-24T01:52:55;24.42;;;15.77;;
58240;SDS011;45058;55.772;38.224;2023-07-24T01:55:21;24.35;;;15.65;;
58240;SDS011;45058;55.772;38.224;2023-07-24T01:57:47;28.17;;;15.65;;
58240;SDS011;45058;55.772;38.224;2023-07-24T02:00:13;26.60;;;18.20;;
58240;SDS011;45058;55.772;38.224;2023-07-24T02:02:39;35.08;;;18.58;;
58240;SDS011;45058;55.772;38.224;2023-07-24T02:05:05;25.33;;;17.05;;
58240;SDS011;45058;55.772;38.224;2023-07-24T02:07:31;24.90;;;15.32;;
58240;SDS011;45058;55.772;38.224;2023-07-24T02:09:57;25.10;;;15.43;;
58240;SDS011;45058;55.772;38.224;2023-07-24T02:12:23;28.13;;;14.65;;
58240;SDS011;45058;55.772;38.224;2023-07-24T02:14:49;29.33;;;16.00;;
58240;SDS011;45058;55.772;38.224;2023-07-24T02:17:17;31.15;;;16.65;;
58240;SDS011;45058;55.772;38.224;2023-07-24T02:19:44;28.40;;;17.13;;
58240;SDS011;45058;55.772;38.224;2023-07-24T02:22:10;38.50;;;19.83;;
58240;SDS011;45058;55.772;38.224;2023-07-24T02:24:36;31.98;;;19.33;;
58240;SDS011;45058;55.772;38.224;2023-07-24T02:27:02;34.50;;;19.55;;
58240;SDS011;45058;55.772;38.224;2023-07-24T02:29:33;37.45;;;21.55;;
58240;SDS011;45058;55.772;38.224;2023-07-24T02:31:59;36.42;;;20.90;;
58240;SDS011;45058;55.772;38.224;2023-07-24T02:34:24;34.90;;;20.40;;
58240;SDS011;45058;55.772;38.224;2023-07-24T02:36:53;36.55;;;23.58;;
58240;SDS011;45058;55.772;38.224;2023-07-24T02:39:19;32.67;;;20.60;;
58240;SDS011;45058;55.772;38.224;2023-07-24T02:41:46;28.92;;;19.75;;
58240;SDS011;45058;55.772;38.224;2023-07-24T02:44:14;32.75;;;20.25;;
58240;SDS011;45058;55.772;38.224;2023-07-24T02:46:40;41.13;;;22.05;;
58240;SDS011;45058;55.772;38.224;2023-07-24T02:49:06;31.27;;;19.30;;
58240;SDS011;45058;55.772;38.224;2023-07-24T02:51:32;25.55;;;18.80;;
58240;SDS011;45058;55.772;38.224;2023-07-24T02:53:58;30.63;;;18.77;;
58240;SDS011;45058;55.772;38.224;2023-07-24T02:56:24;25.83;;;17.92;;
58240;SDS011;45058;55.772;38.224;2023-07-24T02:58:50;26.85;;;16.48;;
58240;SDS011;45058;55.772;38.224;2023-07-24T03:01:16;24.67;;;16.83;;
58240;SDS011;45058;55.772;38.224;2023-07-24T03:03:42;25.38;;;16.92;;
58240;SDS011;45058;55.772;38.224;2023-07-24T03:06:08;21.95;;;15.65;;
58240;SDS011;45058;55.772;38.224;2023-07-24T03:08:34;24.52;;;14.95;;
58240;SDS011;45058;55.772;38.224;2023-07-24T03:11:00;20.67;;;15.23;;
58240;SDS011;45058;55.772;38.224;2023-07-24T03:13:27;20.98;;;15.18;;
58240;SDS011;45058;55.772;38.224;2023-07-24T03:15:57;21.00;;;15.27;;
58240;SDS011;45058;55.772;38.224;2023-07-24T03:18:23;20.85;;;14.07;;
58240;SDS011;45058;55.772;38.224;2023-07-24T03:20:50;20.92;;;12.35;;
58240;SDS011;45058;55.772;38.224;2023-07-24T03:23:16;18.17;;;12.23;;
58240;SDS011;45058;55.772;38.224;2023-07-24T03:25:42;16.25;;;12.45;;
58240;SDS011;45058;55.772;38.224;2023-07-24T03:28:08;19.30;;;11.68;;
58240;SDS011;45058;55.772;38.224;2023-07-24T03:30:34;18.92;;;12.60;;
58240;SDS011;45058;55.772;38.224;2023-07-24T03:33:01;16.05;;;12.07;;
58240;SDS011;45058;55.772;38.224;2023-07-24T03:35:30;16.85;;;12.45;;
58240;SDS011;45058;55.772;38.224;2023-07-24T03:37:56;21.35;;;11.95;;
58240;SDS011;45058;55.772;38.224;2023-07-24T03:40:22;21.40;;;12.13;;
58240;SDS011;45058;55.772;38.224;2023-07-24T03:42:48;17.85;;;12.07;;
58240;SDS011;45058;55.772;38.224;2023-07-24T03:45:14;15.23;;;12.23;;
58240;SDS011;45058;55.772;38.224;2023-07-24T03:47:40;16.88;;;11.80;;
58240;SDS011;45058;55.772;38.224;2023-07-24T03:50:06;18.45;;;11.23;;
58240;SDS011;45058;55.772;38.224;2023-07-24T03:52:32;16.50;;;10.60;;
58240;SDS011;45058;55.772;38.224;2023-07-24T03:54:58;12.27;;;10.70;;
58240;SDS011;45058;55.772;38.224;2023-07-24T03:57:23;21.90;;;12.30;;
58240;SDS011;45058;55.772;38.224;2023-07-24T03:59:49;20.80;;;11.18;;
58240;SDS011;45058;55.772;38.224;2023-07-24T04:02:15;16.02;;;11.20;;
58240;SDS011;45058;55.772;38.224;2023-07-24T04:04:41;15.57;;;9.57;;
58240;SDS011;45058;55.772;38.224;2023-07-24T04:07:07;12.80;;;9.13;;
58240;SDS011;45058;55.772;38.224;2023-07-24T04:09:33;13.85;;;9.55;;
58240;SDS011;45058;55.772;38.224;2023-07-24T04:11:59;12.02;;;9.20;;
58240;SDS011;45058;55.772;38.224;2023-07-24T04:14:25;9.77;;;8.40;;
58240;SDS011;45058;55.772;38.224;2023-07-24T04:16:51;12.70;;;7.88;;
58240;SDS011;45058;55.772;38.224;2023-07-24T04:19:17;18.08;;;8.27;;
58240;SDS011;45058;55.772;38.224;2023-07-24T04:21:43;8.98;;;7.53;;
58240;SDS011;45058;55.772;38.224;2023-07-24T04:24:09;11.88;;;7.40;;
58240;SDS011;45058;55.772;38.224;2023-07-24T04:26:34;9.00;;;6.45;;
58240;SDS011;45058;55.772;38.224;2023-07-24T04:29:00;10.60;;;6.22;;
58240;SDS011;45058;55.772;38.224;2023-07-24T04:31:26;8.60;;;6.28;;
58240;SDS011;45058;55.772;38.224;2023-07-24T04:33:52;9.93;;;6.60;;
58240;SDS011;45058;55.772;38.224;2023-07-24T04:36:18;9.77;;;5.63;;
58240;SDS011;45058;55.772;38.224;2023-07-24T04:38:44;8.30;;;6.10;;
58240;SDS011;45058;55.772;38.224;2023-07-24T04:41:11;6.40;;;5.00;;
58240;SDS011;45058;55.772;38.224;2023-07-24T04:43:37;9.82;;;4.57;;
58240;SDS011;45058;55.772;38.224;2023-07-24T04:46:03;11.25;;;6.18;;
58240;SDS011;45058;55.772;38.224;2023-07-24T04:48:29;5.80;;;5.13;;
58240;SDS011;45058;55.772;38.224;2023-07-24T04:50:55;7.78;;;4.85;;
58240;SDS011;45058;55.772;38.224;2023-07-24T04:53:22;6.93;;;4.63;;
58240;SDS011;45058;55.772;38.224;2023-07-24T04:55:48;10.23;;;5.28;;
58240;SDS011;45058;55.772;38.224;2023-07-24T04:58:14;6.47;;;4.90;;
58240;SDS011;45058;55.772;38.224;2023-07-24T05:00:40;11.73;;;5.03;;
58240;SDS011;45058;55.772;38.224;2023-07-24T05:03:06;8.27;;;4.63;;
58240;SDS011;45058;55.772;38.224;2023-07-24T05:05:39;8.18;;;4.45;;
58240;SDS011;45058;55.772;38.224;2023-07-24T05:08:04;9.73;;;4.60;;
58240;SDS011;45058;55.772;38.224;2023-07-24T05:10:36;7.57;;;4.82;;
58240;SDS011;45058;55.772;38.224;2023-07-24T05:13:02;10.10;;;4.38;;
58240;SDS011;45058;55.772;38.224;2023-07-24T05:15:28;6.57;;;4.05;;
58240;SDS011;45058;55.772;38.224;2023-07-24T05:17:54;6.47;;;3.47;;
58240;SDS011;45058;55.772;38.224;2023-07-24T05:20:20;7.57;;;3.97;;
58240;SDS011;45058;55.772;38.224;2023-07-24T05:22:46;7.57;;;3.53;;
58240;SDS011;45058;55.772;38.224;2023-07-24T05:25:11;5.43;;;3.13;;
58240;SDS011;45058;55.772;38.224;2023-07-24T05:27:37;3.33;;;2.92;;
58240;SDS011;45058;55.772;38.224;2023-07-24T05:30:03;4.15;;;2.85;;
58240;SDS011;45058;55.772;38.224;2023-07-24T05:32:30;7.82;;;3.00;;
58240;SDS011;45058;55.772;38.224;2023-07-24T05:34:56;6.32;;;3.35;;
58240;SDS011;45058;55.772;38.224;2023-07-24T05:37:22;11.98;;;3.70;;
58240;SDS011;45058;55.772;38.224;2023-07-24T05:39:48;9.68;;;3.25;;
58240;SDS011;45058;55.772;38.224;2023-07-24T05:42:14;9.75;;;2.92;;
58240;SDS011;45058;55.772;38.224;2023-07-24T05:44:40;8.00;;;3.78;;
58240;SDS011;45058;55.772;38.224;2023-07-24T05:47:06;12.43;;;3.47;;
58240;SDS011;45058;55.772;38.224;2023-07-24T05:49:32;7.13;;;3.40;;
58240;SDS011;45058;55.772;38.224;2023-07-24T05:51:57;5.57;;;2.85;;
58240;SDS011;45058;55.772;38.224;2023-07-24T05:54:23;7.78;;;3.03;;
58240;SDS011;45058;55.772;38.224;2023-07-24T05:56:49;7.88;;;2.97;;
58240;SDS011;45058;55.772;38.224;2023-07-24T05:59:17;8.93;;;3.53;;
58240;SDS011;45058;55.772;38.224;2023-07-24T06:01:43;7.13;;;2.90;;
58240;SDS011;45058;55.772;38.224;2023-07-24T06:04:09;3.88;;;2.63;;
58240;SDS011;45058;55.772;38.224;2023-07-24T06:06:35;4.47;;;2.40;;
58240;SDS011;45058;55.772;38.224;2023-07-24T06:09:02;5.00;;;2.85;;
58240;SDS011;45058;55.772;38.224;2023-07-24T06:11:28;4.20;;;2.80;;
58240;SDS011;45058;55.772;38.224;2023-07-24T06:13:54;7.85;;;2.60;;
58240;SDS011;45058;55.772;38.224;2023-07-24T11:12:44;4.68;;;2.88;;
58240;SDS011;45058;55.772;38.224;2023-07-24T11:15:11;5.47;;;2.30;;
58240;SDS011;45058;55.772;38.224;2023-07-24T11:17:37;5.00;;;2.38;;
58240;SDS011;45058;55.772;38.224;2023-07-24T11:20:12;6.35;;;2.70;;
58240;SDS011;45058;55.772;38.224;2023-07-24T11:22:41;6.82;;;3.25;;
58240;SDS011;45058;55.772;38.224;2023-07-24T11:25:09;4.00;;;2.60;;
58240;SDS011;45058;55.772;38.224;2023-07-24T11:27:40;7.53;;;2.88;;
58240;SDS011;45058;55.772;38.224;2023-07-24T11:30:08;4.40;;;2.70;;
58240;SDS011;45058;55.772;38.224;2023-07-24T11:32:34;4.72;;;3.40;;
58240;SDS011;45058;55.772;38.224;2023-07-24T11:35:01;11.23;;;4.07;;
58240;SDS011;45058;55.772;38.224;2023-07-24T11:37:28;5.72;;;3.80;;
58240;SDS011;45058;55.772;38.224;2023-07-24T11:40:01;7.18;;;3.35;;
58240;SDS011;45058;55.772;38.224;2023-07-24T11:42:45;5.20;;;3.80;;
58240;SDS011;45058;55.772;38.224;2023-07-24T11:45:13;10.00;;;3.60;;
58240;SDS011;45058;55.772;38.224;2023-07-24T11:47:43;7.43;;;3.88;;
58240;SDS011;45058;55.772;38.224;2023-07-24T11:50:19;8.40;;;3.90;;
58240;SDS011;45058;55.772;38.224;2023-07-24T11:52:49;15.27;;;3.60;;
58240;SDS011;45058;55.772;38.224;2023-07-24T11:55:29;7.28;;;4.05;;
58240;SDS011;45058;55.772;38.224;2023-07-24T11:57:57;22.05;;;4.75;;
58240;SDS011;45058;55.772;38.224;2023-07-24T12:00:24;7.85;;;4.15;;
58240;SDS011;45058;55.772;38.224;2023-07-24T12:02:50;8.93;;;4.55;;
58240;SDS011;45058;55.772;38.224;2023-07-24T12:05:17;7.90;;;4.63;;
58240;SDS011;45058;55.772;38.224;2023-07-24T12:07:43;7.00;;;4.22;;
58240;SDS011;45058;55.772;38.224;2023-07-24T12:10:13;12.40;;;4.75;;
58240;SDS011;45058;55.772;38.224;2023-07-24T12:12:43;6.55;;;4.88;;
58240;SDS011;45058;55.772;38.224;2023-07-24T12:15:11;8.55;;;3.90;;
58240;SDS011;45058;55.772;38.224;2023-07-24T12:17:38;7.30;;;4.35;;
58240;SDS011;45058;55.772;38.224;2023-07-24T12:20:07;7.75;;;4.70;;
58240;SDS011;45058;55.772;38.224;2023-07-24T12:22:37;6.70;;;4.15;;
58240;SDS011;45058;55.772;38.224;2023-07-24T12:25:04;5.20;;;4.07;;
58240;SDS011;45058;55.772;38.224;2023-07-24T12:27:31;4.95;;;3.90;;
58240;SDS011;45058;55.772;38.224;2023-07-24T12:29:58;8.70;;;4.80;;
58240;SDS011;45058;55.772;38.224;2023-07-24T12:32:24;9.05;;;4.60;;
58240;SDS011;45058;55.772;38.224;2023-07-24T12:34:51;6.00;;;4.65;;
58240;SDS011;45058;55.772;38.224;2023-07-24T12:37:18;11.23;;;5.10;;
58240;SDS011;45058;55.772;38.224;2023-07-24T12:39:45;10.93;;;4.93;;
58240;SDS011;45058;55.772;38.224;2023-07-24T12:42:11;13.35;;;6.28;;
58240;SDS011;45058;55.772;38.224;2023-07-24T12:44:38;5.53;;;4.82;;
58240;SDS011;45058;55.772;38.224;2023-07-24T12:47:04;10.35;;;5.03;;
58240;SDS011;45058;55.772;38.224;2023-07-24T12:49:30;8.07;;;5.63;;
58240;SDS011;45058;55.772;38.224;2023-07-24T12:51:57;7.55;;;5.90;;
58240;SDS011;45058;55.772;38.224;2023-07-24T12:54:23;10.00;;;6.30;;
58240;SDS011;45058;55.772;38.224;2023-07-24T12:56:49;8.60;;;5.95;;
58240;SDS011;45058;55.772;38.224;2023-07-24T12:59:16;8.35;;;5.80;;
58240;SDS011;45058;55.772;38.224;2023-07-24T13:01:45;10.02;;;6.45;;
58240;SDS011;45058;55.772;38.224;2023-07-24T13:04:11;11.65;;;6.38;;
58240;SDS011;45058;55.772;38.224;2023-07-24T13:06:37;11.65;;;6.28;;
58240;SDS011;45058;55.772;38.224;2023-07-24T13:09:03;10.80;;;6.25;;
58240;SDS011;45058;55.772;38.224;2023-07-24T13:11:30;8.05;;;5.57;;
58240;SDS011;45058;55.772;38.224;2023-07-24T13:13:56;10.25;;;5.85;;
58240;SDS011;45058;55.772;38.224;2023-07-24T13:16:23;8.63;;;6.55;;
58240;SDS011;45058;55.772;38.224;2023-07-24T13:18:49;9.90;;;6.25;;
58240;SDS011;45058;55.772;38.224;2023-07-24T13:21:15;9.85;;;6.40;;
58240;SDS011;45058;55.772;38.224;2023-07-24T13:23:41;7.55;;;5.32;;
58240;SDS011;45058;55.772;38.224;2023-07-24T13:26:08;9.20;;;5.80;;
58240;SDS011;45058;55.772;38.224;2023-07-24T13:28:36;7.82;;;5.32;;
58240;SDS011;45058;55.772;38.224;2023-07-24T13:31:16;9.52;;;4.70;;
58240;SDS011;45058;55.772;38.224;2023-07-24T13:33:46;10.18;;;5.05;;
58240;SDS011;45058;55.772;38.224;2023-07-24T13:36:12;9.35;;;5.20;;
58240;SDS011;45058;55.772;38.224;2023-07-24T13:38:39;10.98;;;5.22;;
58240;SDS011;45058;55.772;38.224;2023-07-24T13:41:05;7.63;;;5.70;;
58240;SDS011;45058;55.772;38.224;2023-07-24T13:43:32;10.50;;;5.80;;
58240;SDS011;45058;55.772;38.224;2023-07-24T13:45:58;11.02;;;5.50;;
58240;SDS011;45058;55.772;38.224;2023-07-24T13:48:26;9.95;;;5.30;;
58240;SDS011;45058;55.772;38.224;2023-07-24T13:50:53;13.52;;;5.20;;
58240;SDS011;45058;55.772;38.224;2023-07-24T13:53:19;9.63;;;6.35;;
58240;SDS011;45058;55.772;38.224;2023-07-24T14:26:39;14.63;;;7.90;;
58240;SDS011;45058;55.772;38.224;2023-07-24T14:29:05;13.77;;;7.13;;
58240;SDS011;45058;55.772;38.224;2023-07-24T14:31:31;10.32;;;7.80;;
58240;SDS011;45058;55.772;38.224;2023-07-24T14:33:58;8.77;;;6.70;;
58240;SDS011;45058;55.772;38.224;2023-07-24T14:36:24;10.80;;;6.35;;
58240;SDS011;45058;55.772;38.224;2023-07-24T14:38:51;6.97;;;5.90;;
58240;SDS011;45058;55.772;38.224;2023-07-24T14:41:17;11.15;;;5.93;;
58240;SDS011;45058;55.772;38.224;2023-07-24T14:43:43;8.50;;;6.60;;
58240;SDS011;45058;55.772;38.224;2023-07-24T14:46:09;9.13;;;6.00;;
58240;SDS011;45058;55.772;38.224;2023-07-24T14:48:35;6.97;;;5.47;;
58240;SDS011;45058;55.772;38.224;2023-07-24T14:51:01;9.13;;;5.90;;
58240;SDS011;45058;55.772;38.224;2023-07-24T14:53:27;9.55;;;5.60;;
58240;SDS011;45058;55.772;38.224;2023-07-24T14:55:53;6.75;;;5.57;;
58240;SDS011;45058;55.772;38.224;2023-07-24T14:58:19;7.32;;;4.90;;
58240;SDS011;45058;55.772;38.224;2023-07-24T15:00:45;9.50;;;4.68;;
58240;SDS011;45058;55.772;38.224;2023-07-24T15:03:11;6.60;;;4.97;;
58240;SDS011;45058;55.772;38.224;2023-07-24T15:05:37;9.73;;;4.80;;
58240;SDS011;45058;55.772;38.224;2023-07-24T15:08:03;7.00;;;4.63;;
58240;SDS011;45058;55.772;38.224;2023-07-24T15:10:29;7.28;;;4.60;;
58240;SDS011;45058;55.772;38.224;2023-07-24T15:12:55;7.05;;;5.10;;
58240;SDS011;45058;55.772;38.224;2023-07-24T15:15:21;6.72;;;4.95;;
58240;SDS011;45058;55.772;38.224;2023-07-24T15:17:47;7.40;;;5.15;;
58240;SDS011;45058;55.772;38.224;2023-07-24T15:20:13;8.30;;;5.47;;
58240;SDS011;45058;55.772;38.224;2023-07-24T15:22:41;6.88;;;5.65;;
58240;SDS011;45058;55.772;38.224;2023-07-24T15:25:07;9.45;;;5.38;;
58240;SDS011;45058;55.772;38.224;2023-07-24T15:27:33;6.82;;;4.38;;
58240;SDS011;45058;55.772;38.224;2023-07-24T15:29:59;8.38;;;4.70;;
58240;SDS011;45058;55.772;38.224;2023-07-24T15:32:25;6.82;;;4.43;;
58240;SDS011;45058;55.772;38.224;2023-07-24T15:34:51;6.00;;;4.43;;
58240;SDS011;45058;55.772;38.224;2023-07-24T15:37:17;7.40;;;4.80;;
58240;SDS011;45058;55.772;38.224;2023-07-24T15:39:43;7.45;;;5.07;;
58240;SDS011;45058;55.772;38.224;2023-07-24T15:42:10;8.73;;;5.80;;
58240;SDS011;45058;55.772;38.224;2023-07-24T15:44:36;9.73;;;5.15;;
58240;SDS011;45058;55.772;38.224;2023-07-24T15:47:02;9.80;;;5.78;;
58240;SDS011;45058;55.772;38.224;2023-07-24T15:49:27;8.65;;;5.53;;
58240;SDS011;45058;55.772;38.224;2023-07-24T15:51:54;9.15;;;5.85;;
58240;SDS011;45058;55.772;38.224;2023-07-24T15:54:21;7.78;;;6.13;;
58240;SDS011;45058;55.772;38.224;2023-07-24T15:56:46;11.82;;;6.88;;
58240;SDS011;45058;55.772;38.224;2023-07-24T15:59:12;9.02;;;7.60;;
58240;SDS011;45058;55.772;38.224;2023-07-24T16:01:39;9.82;;;7.38;;
58240;SDS011;45058;55.772;38.224;2023-07-24T16:04:05;12.48;;;7.85;;
58240;SDS011;45058;55.772;38.224;2023-07-24T16:06:31;9.23;;;6.85;;
58240;SDS011;45058;55.772;38.224;2023-07-24T16:08:57;10.25;;;8.18;;
58240;SDS011;45058;55.772;38.224;2023-07-24T16:11:25;16.35;;;7.88;;
58240;SDS011;45058;55.772;38.224;2023-07-24T16:13:52;10.93;;;7.45;;
58240;SDS011;45058;55.772;38.224;2023-07-24T16:16:18;13.05;;;10.60;;
58240;SDS011;45058;55.772;38.224;2023-07-24T16:18:45;12.90;;;8.32;;
58240;SDS011;45058;55.772;38.224;2023-07-24T16:21:13;9.60;;;8.38;;
58240;SDS011;45058;55.772;38.224;2023-07-24T16:23:39;13.40;;;8.30;;
58240;SDS011;45058;55.772;38.224;2023-07-24T16:26:07;11.65;;;7.80;;
58240;SDS011;45058;55.772;38.224;2023-07-24T16:28:33;10.00;;;8.13;;
58240;SDS011;45058;55.772;38.224;2023-07-24T16:30:58;13.20;;;8.75;;
58240;SDS011;45058;55.772;38.224;2023-07-24T16:33:24;14.05;;;9.02;;
58240;SDS011;45058;55.772;38.224;2023-07-24T16:35:51;14.98;;;8.52;;
58240;SDS011;45058;55.772;38.224;2023-07-24T16:38:17;12.90;;;8.23;;
58240;SDS011;45058;55.772;38.224;2023-07-24T16:40:43;15.73;;;8.50;;
58240;SDS011;45058;55.772;38.224;2023-07-24T16:43:10;13.85;;;8.80;;
58240;SDS011;45058;55.772;38.224;2023-07-24T16:45:36;11.30;;;8.77;;
58240;SDS011;45058;55.772;38.224;2023-07-24T16:48:03;15.35;;;8.35;;
58240;SDS011;45058;55.772;38.224;2023-07-24T16:50:31;11.70;;;8.93;;
58240;SDS011;45058;55.772;38.224;2023-07-24T16:52:58;13.18;;;9.30;;
58240;SDS011;45058;55.772;38.224;2023-07-24T16:55:25;15.93;;;10.27;;
58240;SDS011;45058;55.772;38.224;2023-07-24T16:57:51;17.58;;;9.65;;
58240;SDS011;45058;55.772;38.224;2023-07-24T17:00:17;13.95;;;9.25;;
58240;SDS011;45058;55.772;38.224;2023-07-24T17:02:43;17.95;;;9.85;;
58240;SDS011;45058;55.772;38.224;2023-07-24T17:05:09;17.52;;;10.95;;
58240;SDS011;45058;55.772;38.224;2023-07-24T17:07:35;16.65;;;11.63;;
58240;SDS011;45058;55.772;38.224;2023-07-24T17:10:01;16.90;;;10.88;;
58240;SDS011;45058;55.772;38.224;2023-07-24T17:12:27;16.17;;;10.77;;
58240;SDS011;45058;55.772;38.224;2023-07-24T17:14:54;18.83;;;11.00;;
58240;SDS011;45058;55.772;38.224;2023-07-24T17:17:20;17.73;;;11.02;;
58240;SDS011;45058;55.772;38.224;2023-07-24T17:19:46;18.77;;;11.38;;
58240;SDS011;45058;55.772;38.224;2023-07-24T17:22:12;21.67;;;11.73;;
58240;SDS011;45058;55.772;38.224;2023-07-24T17:24:41;17.13;;;11.10;;
58240;SDS011;45058;55.772;38.224;2023-07-24T17:27:08;21.48;;;12.35;;
58240;SDS011;45058;55.772;38.224;2023-07-24T17:29:35;20.55;;;14.60;;
58240;SDS011;45058;55.772;38.224;2023-07-24T17:32:03;26.55;;;14.65;;
58240;SDS011;45058;55.772;38.224;2023-07-24T17:34:30;20.20;;;14.88;;
58240;SDS011;45058;55.772;38.224;2023-07-24T17:36:56;24.80;;;14.85;;
58240;SDS011;45058;55.772;38.224;2023-07-24T17:39:23;18.83;;;14.48;;
58240;SDS011;45058;55.772;38.224;2023-07-24T17:41:49;26.35;;;16.98;;
58240;SDS011;45058;55.772;38.224;2023-07-24T17:44:16;21.70;;;16.25;;
58240;SDS011;45058;55.772;38.224;2023-07-24T17:46:43;27.73;;;17.05;;
58240;SDS011;45058;55.772;38.224;2023-07-24T17:49:09;28.95;;;18.52;;
58240;SDS011;45058;55.772;38.224;2023-07-24T17:51:36;28.13;;;16.75;;
58240;SDS011;45058;55.772;38.224;2023-07-24T17:54:02;23.50;;;15.55;;
58240;SDS011;45058;55.772;38.224;2023-07-24T17:56:32;30.27;;;17.73;;
58240;SDS011;45058;55.772;38.224;2023-07-24T17:58:58;22.23;;;16.23;;
58240;SDS011;45058;55.772;38.224;2023-07-24T18:01:24;20.23;;;15.30;;
58240;SDS011;45058;55.772;38.224;2023-07-24T18:03:50;29.08;;;17.00;;
58240;SDS011;45058;55.772;38.224;2023-07-24T18:06:16;31.83;;;16.60;;
58240;SDS011;45058;55.772;38.224;2023-07-24T18:08:42;26.27;;;17.75;;
58240;SDS011;45058;55.772;38.224;2023-07-24T18:11:08;36.35;;;20.33;;
58240;SDS011;45058;55.772;38.224;2023-07-24T18:13:34;29.10;;;18.55;;
58240;SDS011;45058;55.772;38.224;2023-07-24T18:16:00;35.35;;;21.35;;
58240;SDS011;45058;55.772;38.224;2023-07-24T18:18:26;38.53;;;24.38;;
58240;SDS011;45058;55.772;38.224;2023-07-24T18:20:52;38.45;;;23.00;;
58240;SDS011;45058;55.772;38.224;2023-07-24T18:23:20;42.80;;;23.88;;
58240;SDS011;45058;55.772;38.224;2023-07-24T18:25:46;44.70;;;23.77;;
58240;SDS011;45058;55.772;38.224;2023-07-24T18:28:12;40.00;;;24.75;;
58240;SDS011;45058;55.772;38.224;2023-07-24T18:30:38;38.78;;;23.80;;
58240;SDS011;45058;55.772;38.224;2023-07-24T18:33:04;37.78;;;21.63;;
58240;SDS011;45058;55.772;38.224;2023-07-24T18:35:30;35.67;;;22.17;;
58240;SDS011;45058;55.772;38.224;2023-07-24T18:37:57;31.38;;;21.33;;
58240;SDS011;45058;55.772;38.224;2023-07-24T18:40:23;31.15;;;18.33;;
58240;SDS011;45058;55.772;38.224;2023-07-24T18:42:49;35.40;;;21.10;;
58240;SDS011;45058;55.772;38.224;2023-07-24T18:45:17;31.63;;;19.67;;
58240;SDS011;45058;55.772;38.224;2023-07-24T18:47:43;29.77;;;20.17;;
58240;SDS011;45058;55.772;38.224;2023-07-24T18:50:09;35.30;;;22.33;;
58240;SDS011;45058;55.772;38.224;2023-07-24T18:52:36;37.38;;;25.98;;
58240;SDS011;45058;55.772;38.224;2023-07-24T18:55:03;43.08;;;28.38;;
58240;SDS011;45058;55.772;38.224;2023-07-24T18:57:32;46.97;;;28.67;;
58240;SDS011;45058;55.772;38.224;2023-07-24T18:59:58;40.58;;;25.77;;
58240;SDS011;45058;55.772;38.224;2023-07-24T19:02:27;43.22;;;24.42;;
58240;SDS011;45058;55.772;38.224;2023-07-24T19:04:53;39.78;;;25.00;;
58240;SDS011;45058;55.772;38.224;2023-07-24T19:07:19;45.17;;;27.27;;
58240;SDS011;45058;55.772;38.224;2023-07-24T19:09:45;51.95;;;28.52;;
58240;SDS011;45058;55.772;38.224;2023-07-24T19:12:11;48.55;;;28.25;;
58240;SDS011;45058;55.772;38.224;2023-07-24T19:14:38;45.33;;;27.83;;
58240;SDS011;45058;55.772;38.224;2023-07-24T19:17:05;69.38;;;33.45;;
58240;SDS011;45058;55.772;38.224;2023-07-24T19:19:31;53.45;;;28.85;;
58240;SDS011;45058;55.772;38.224;2023-07-24T19:21:57;58.85;;;31.27;;
58240;SDS011;45058;55.772;38.224;2023-07-24T19:24:23;43.22;;;25.70;;
58240;SDS011;45058;55.772;38.224;2023-07-24T19:26:50;47.50;;;28.45;;
58240;SDS011;45058;55.772;38.224;2023-07-24T19:29:16;46.47;;;28.13;;
58240;SDS011;45058;55.772;38.224;2023-07-24T19:31:43;41.53;;;24.65;;
58240;SDS011;45058;55.772;38.224;2023-07-24T19:34:10;44.92;;;25.23;;
58240;SDS011;45058;55.772;38.224;2023-07-24T19:36:36;50.97;;;29.10;;
58240;SDS011;45058;55.772;38.224;2023-07-24T19:39:02;39.70;;;22.38;;
58240;SDS011;45058;55.772;38.224;2023-07-24T19:41:31;36.10;;;21.48;;
58240;SDS011;45058;55.772;38.224;2023-07-24T19:43:58;41.35;;;25.38;;
58240;SDS011;45058;55.772;38.224;2023-07-24T19:46:24;48.00;;;28.88;;
58240;SDS011;45058;55.772;38.224;2023-07-24T19:48:52;66.10;;;30.98;;